createdAt,value
2023-04-12T00:01:26.250Z,99821.23
2023-04-12T00:06:19.188Z,99818.23
2023-04-12T00:11:11.883Z,99790.57
2023-04-12T00:16:04.662Z,99790.28
2023-04-12T00:20:57.484Z,99795.73
2023-04-12T00:25:50.796Z,99780.08
2023-04-12T00:30:43.987Z,99777.19
2023-04-12T00:35:36.865Z,99778.09
2023-04-12T00:40:29.784Z,99785.30
2023-04-12T00:45:22.911Z,99787.20
2023-04-12T00:50:15.660Z,99784.95
2023-04-12T00:55:09.582Z,99791.34
2023-04-12T01:00:02.820Z,99792.50
2023-04-12T01:04:58.764Z,99796.52
2023-04-12T01:09:53.266Z,99798.33
2023-04-12T01:14:58.266Z,99789.68
2023-04-12T01:20:13.603Z,99788.88
2023-04-12T01:25:09.762Z,99790.14
2023-04-12T01:30:04.420Z,99792.43
2023-04-12T01:34:58.931Z,99796.41
2023-04-12T01:39:52.234Z,99793.51
2023-04-12T01:44:44.961Z,99793.23
2023-04-12T01:49:44.791Z,99789.27
2023-04-12T01:54:39.633Z,99784.63
2023-04-12T01:59:42.836Z,99779.08
2023-04-12T02:04:36.708Z,99775.73
2023-04-12T02:09:29.401Z,99789.15
2023-04-12T02:14:22.199Z,99795.33
2023-04-12T02:19:14.976Z,99795.69
2023-04-12T02:24:08.333Z,99794.52
2023-04-12T02:29:01.094Z,99794.31
2023-04-12T02:33:54.254Z,99792.89
2023-04-12T02:38:50.948Z,99787.13
2023-04-12T02:43:44.219Z,99786.98
2023-04-12T02:48:36.969Z,99783.42
2023-04-12T02:53:30.858Z,99789.15
2023-04-12T02:58:37.674Z,99793.19
2023-04-12T03:03:32.272Z,99797.02
2023-04-12T03:08:31.276Z,99795.49
2023-04-12T03:13:24.605Z,99793.46
2023-04-12T03:18:21.161Z,99794.87
2023-04-12T03:23:15.577Z,99797.65
2023-04-12T03:28:11.504Z,99796.77
2023-04-12T03:33:16.020Z,99797.15
2023-04-12T03:38:09.669Z,99804.77
2023-04-12T03:43:03.254Z,99805.29
2023-04-12T03:47:56.449Z,99807.23
2023-04-12T03:52:50.345Z,99806.02
2023-04-12T03:57:43.622Z,99808.59
2023-04-12T04:02:37.475Z,99810.48
2023-04-12T04:07:31.948Z,99808.27
2023-04-12T04:12:24.984Z,99814.15
2023-04-12T04:17:20.628Z,99817.95
2023-04-12T04:22:14.060Z,99818.48
2023-04-12T04:27:07.507Z,99812.80
2023-04-12T04:32:00.687Z,99819.91
2023-04-12T04:36:54.030Z,99823.41
2023-04-12T04:41:54.873Z,99824.98
2023-04-12T04:47:07.006Z,99830.94
2023-04-12T04:52:03.730Z,99832.58
2023-04-12T04:56:58.397Z,99838.34
2023-04-12T05:01:52.818Z,99844.28
2023-04-12T05:06:47.399Z,99841.77
2023-04-12T05:11:41.523Z,99839.96
2023-04-12T05:16:36.229Z,99841.44
2023-04-12T05:21:29.284Z,99841.39
2023-04-12T05:26:22.607Z,99844.16
2023-04-12T05:31:16.362Z,99842.87
2023-04-12T05:36:11.398Z,99843.23
2023-04-12T05:41:04.898Z,99845.13
2023-04-12T05:45:58.626Z,99842.77
2023-04-12T05:50:51.982Z,99834.81
2023-04-12T05:55:44.714Z,99825.86
2023-04-12T06:00:37.920Z,99828.14
2023-04-12T06:05:30.782Z,99835.58
2023-04-12T06:10:23.619Z,99834.20
2023-04-12T06:15:19.976Z,99839.71
2023-04-12T06:20:16.648Z,99843.13
2023-04-12T06:25:10.047Z,99841.73
2023-04-12T06:30:02.851Z,99842.64
2023-04-12T06:34:58.673Z,99844.71
2023-04-12T06:39:52.669Z,99844.02
2023-04-12T06:44:45.345Z,99846.80
2023-04-12T06:49:39.494Z,99845.66
2023-04-12T06:54:32.191Z,99851.27
2023-04-12T06:59:24.915Z,99852.52
2023-04-12T07:04:18.086Z,99850.63
2023-04-12T07:09:11.484Z,99852.42
2023-04-12T07:14:04.231Z,99854.92
2023-04-12T07:18:57.442Z,99855.35
2023-04-12T07:23:51.585Z,99852.13
2023-04-12T07:28:45.188Z,99851.61
2023-04-12T07:33:42.974Z,99854.02
2023-04-12T07:38:38.125Z,99850.71
2023-04-12T07:43:35.589Z,99852.61
2023-04-12T07:48:28.447Z,99857.28
2023-04-12T07:53:25.378Z,99860.75
2023-04-12T07:58:18.742Z,99855.37
2023-04-12T08:03:12.902Z,99857.79
2023-04-12T08:08:06.395Z,99862.34
2023-04-12T08:13:00.297Z,99885.00
2023-04-12T08:17:53.069Z,99888.24
2023-04-12T08:22:46.895Z,99884.03
2023-04-12T08:27:43.667Z,99875.31
2023-04-12T08:32:38.763Z,99859.56
2023-04-12T08:37:31.914Z,99848.91
2023-04-12T08:42:24.862Z,99839.27
2023-04-12T08:47:17.839Z,99839.30
2023-04-12T08:52:11.418Z,99839.80
2023-04-12T08:57:06.624Z,99840.98
2023-04-12T09:02:00.232Z,99847.23
2023-04-12T09:06:53.096Z,99842.20
2023-04-12T09:11:46.134Z,99847.20
2023-04-12T09:16:40.344Z,99842.03
2023-04-12T09:21:34.797Z,99843.42
2023-04-12T09:26:31.628Z,99828.70
2023-04-12T09:31:24.320Z,99826.65
2023-04-12T09:36:19.166Z,99829.26
2023-04-12T09:41:26.923Z,99826.36
2023-04-12T09:46:20.214Z,99824.45
2023-04-12T09:51:14.036Z,99827.48
2023-04-12T09:56:08.517Z,99830.63
2023-04-12T10:01:03.765Z,99832.21
2023-04-12T10:05:56.744Z,99830.13
2023-04-12T10:10:49.510Z,99828.50
2023-04-12T10:15:43.494Z,99821.49
2023-04-12T10:20:37.303Z,99818.47
2023-04-12T10:25:32.165Z,99816.20
2023-04-12T10:30:25.081Z,99815.55
2023-04-12T10:35:17.808Z,99818.91
2023-04-12T10:40:21.583Z,99811.04
2023-04-12T10:45:34.151Z,99813.10
2023-04-12T10:50:30.964Z,99807.88
2023-04-12T10:55:30.094Z,99817.25
2023-04-12T11:00:22.909Z,99819.04
2023-04-12T11:05:19.376Z,99809.77
2023-04-12T11:10:17.574Z,99802.63
2023-04-12T11:15:13.681Z,99806.29
2023-04-12T11:20:14.496Z,99802.95
2023-04-12T11:25:07.470Z,99791.27
2023-04-12T11:30:00.982Z,99777.88
2023-04-12T11:34:54.640Z,99769.48
2023-04-12T11:39:48.638Z,99778.94
2023-04-12T11:44:56.335Z,99769.14
2023-04-12T11:49:54.934Z,99762.87
2023-04-12T11:54:48.702Z,99759.55
2023-04-12T11:59:41.554Z,99751.34
2023-04-12T12:04:34.914Z,99736.10
2023-04-12T12:09:28.152Z,99735.23
2023-04-12T12:14:24.380Z,99731.52
2023-04-12T12:19:17.052Z,99729.81
2023-04-12T12:24:14.558Z,99720.36
2023-04-12T12:29:09.423Z,99713.20
2023-04-12T12:34:04.317Z,99699.78
2023-04-12T12:39:04.464Z,99691.78
2023-04-12T12:43:57.393Z,99692.85
2023-04-12T12:48:50.486Z,99693.03
2023-04-12T12:53:43.221Z,99686.62
2023-04-12T12:58:37.371Z,99683.97
2023-04-12T13:03:32.737Z,99682.84
2023-04-12T13:08:26.459Z,99676.55
2023-04-12T13:13:22.143Z,99672.29
2023-04-12T13:18:17.729Z,99673.04
2023-04-12T13:23:10.750Z,99671.06
2023-04-12T13:28:03.540Z,99669.02
2023-04-12T13:32:56.509Z,99666.94
2023-04-12T13:37:49.243Z,99661.83
2023-04-12T13:42:41.961Z,99648.08
2023-04-12T13:47:35.638Z,99641.19
2023-04-12T13:52:28.473Z,99639.02
2023-04-12T13:57:21.308Z,99631.21
2023-04-12T14:02:14.099Z,99628.39
2023-04-12T14:07:06.874Z,99626.70
2023-04-12T14:12:01.774Z,99626.95
2023-04-12T14:16:57.333Z,99624.90
2023-04-12T14:21:51.925Z,99628.78
2023-04-12T14:26:45.479Z,99629.54
2023-04-12T14:31:38.886Z,99628.52
2023-04-12T14:36:33.530Z,99628.36
2023-04-12T14:41:26.622Z,99627.70
2023-04-12T14:46:19.424Z,99623.27
2023-04-12T14:51:12.154Z,99623.58
2023-04-12T14:56:05.030Z,99622.58
2023-04-12T15:01:00.287Z,99623.73
2023-04-12T15:05:53.384Z,99621.23
2023-04-12T15:10:46.693Z,99623.78
2023-04-12T15:15:39.423Z,99626.22
2023-04-12T15:20:32.115Z,99629.01
2023-04-12T15:25:26.300Z,99628.25
2023-04-12T15:30:19.361Z,99625.34
2023-04-12T15:40:13.689Z,99629.55
2023-04-12T15:45:06.729Z,99624.94
2023-04-12T15:49:59.491Z,99622.88
2023-04-12T15:54:52.318Z,99623.34
2023-04-12T15:59:45.012Z,99624.87
2023-04-12T16:04:38.198Z,99620.45
2023-04-12T16:09:33.393Z,99619.20
2023-04-12T16:14:26.131Z,99617.62
2023-04-12T16:19:18.923Z,99615.80
2023-04-12T16:24:12.350Z,99616.52
2023-04-12T16:29:06.225Z,99614.17
2023-04-12T16:33:59.040Z,99609.90
2023-04-12T16:38:54.632Z,99614.61
2023-04-12T16:43:47.392Z,99618.34
2023-04-12T16:48:41.321Z,99618.16
2023-04-12T16:53:34.056Z,99624.45
2023-04-12T16:58:27.430Z,99623.43
2023-04-12T17:03:21.305Z,99632.23
2023-04-12T17:08:15.668Z,99627.77
2023-04-12T17:13:08.510Z,99628.94
2023-04-12T17:18:05.589Z,99633.99
2023-04-12T17:22:58.989Z,99635.92
2023-04-12T17:27:51.747Z,99641.63
2023-04-12T17:32:44.885Z,99644.74
2023-04-12T17:37:38.790Z,99645.05
2023-04-12T17:42:31.547Z,99648.10
2023-04-12T17:47:24.285Z,99652.73
2023-04-12T17:52:17.921Z,99658.04
2023-04-12T17:57:10.890Z,99663.50
2023-04-12T18:02:03.878Z,99669.30
2023-04-12T18:06:58.054Z,99671.77
2023-04-12T18:11:50.869Z,99675.98
2023-04-12T18:16:44.092Z,99681.59
2023-04-12T18:21:36.793Z,99683.89
2023-04-12T18:26:30.855Z,99681.14
2023-04-12T18:31:23.698Z,99682.38
2023-04-12T18:36:16.592Z,99681.20
2023-04-12T18:41:12.772Z,99678.80
2023-04-12T18:46:05.643Z,99680.70
2023-04-12T18:50:59.578Z,99684.01
2023-04-12T18:55:52.820Z,99685.07
2023-04-12T19:00:46.246Z,99687.52
2023-04-12T19:05:39.355Z,99683.89
2023-04-12T19:10:32.476Z,99692.08
2023-04-12T19:15:25.582Z,99693.48
2023-04-12T19:20:18.345Z,99687.78
2023-04-12T19:25:11.354Z,99686.27
2023-04-12T19:30:04.659Z,99680.01
2023-04-12T19:34:57.528Z,99676.02
2023-04-12T19:39:50.699Z,99671.20
2023-04-12T19:44:44.917Z,99665.99
2023-04-12T19:49:38.227Z,99666.04
2023-04-12T19:54:31.643Z,99663.80
2023-04-12T19:59:26.902Z,99654.30
2023-04-12T20:04:21.753Z,99648.05
2023-04-12T20:09:15.402Z,99645.64
2023-04-12T20:14:09.086Z,99643.56
2023-04-12T20:19:05.005Z,99642.35
2023-04-12T20:23:59.126Z,99641.27
2023-04-12T20:28:51.846Z,99644.19
2023-04-12T20:33:44.538Z,99639.46
2023-04-12T20:38:37.231Z,99636.30
2023-04-12T20:43:31.033Z,99628.29
2023-04-12T20:48:24.868Z,99620.08
2023-04-12T20:53:18.336Z,99617.05
2023-04-12T20:58:12.520Z,99611.95
2023-04-12T21:03:06.391Z,99612.36
2023-04-12T21:07:59.233Z,99615.17
2023-04-12T21:12:52.685Z,99619.88
2023-04-12T21:17:46.491Z,99619.59
2023-04-12T21:22:39.675Z,99613.96
2023-04-12T21:27:33.316Z,99618.17
2023-04-12T21:32:26.482Z,99614.44
2023-04-12T21:37:22.164Z,99619.99
2023-04-12T21:42:14.904Z,99623.36
2023-04-12T21:47:07.739Z,99617.55
2023-04-12T21:52:00.470Z,99614.45
2023-04-12T21:56:53.193Z,99617.98
2023-04-12T22:01:46.073Z,99618.70
2023-04-12T22:06:38.781Z,99621.66
2023-04-12T22:11:31.863Z,99615.02
2023-04-12T22:16:24.771Z,99614.06
2023-04-12T22:21:17.866Z,99615.24
2023-04-12T22:26:11.413Z,99611.42
2023-04-12T22:31:04.173Z,99604.95
2023-04-12T22:35:57.134Z,99607.02
2023-04-12T22:40:49.904Z,99596.01
2023-04-12T22:45:42.823Z,99587.63
2023-04-12T22:50:35.533Z,99577.42
2023-04-12T22:55:28.877Z,99570.08
2023-04-12T23:00:25.246Z,99562.90
2023-04-12T23:05:19.878Z,99555.25
2023-04-12T23:10:12.796Z,99552.05
2023-04-12T23:15:06.564Z,99551.35
2023-04-12T23:20:01.991Z,99551.13
2023-04-12T23:24:55.006Z,99543.61
2023-04-12T23:29:48.215Z,99544.45
2023-04-12T23:34:41.351Z,99538.27
2023-04-12T23:39:34.671Z,99536.08
2023-04-12T23:44:28.127Z,99528.55
2023-04-12T23:49:20.838Z,99525.16
2023-04-12T23:54:13.528Z,99518.69
2023-04-12T23:59:06.252Z,99514.56
